sensor_id;sensor_type;location;lat;lon;timestamp;pressure;altitude;pressure_sealevel;temperature;humidity
30516;BME280;17297;54.022;10.760;2023-08-06T00:01:23;100799.03;;;19.87;61.26
30516;BME280;17297;54.022;10.760;2023-08-06T00:03:50;100798.47;;;19.85;61.08
30516;BME280;17297;54.022;10.760;2023-08-06T00:06:15;100799.81;;;19.82;61.03
30516;BME280;17297;54.022;10.760;2023-08-06T00:08:41;100801.94;;;19.80;61.09
30516;BME280;17297;54.022;10.760;2023-08-06T00:11:06;100808.50;;;19.79;60.99
30516;BME280;17297;54.022;10.760;2023-08-06T00:13:31;100786.59;;;19.74;61.03
30516;BME280;17297;54.022;10.760;2023-08-06T00:16:13;100778.91;;;19.71;61.26
30516;BME280;17297;54.022;10.760;2023-08-06T00:18:39;100791.72;;;19.71;61.19
30516;BME280;17297;54.022;10.760;2023-08-06T00:21:04;100797.69;;;19.68;61.37
30516;BME280;17297;54.022;10.760;2023-08-06T00:23:30;100799.84;;;19.66;61.66
30516;BME280;17297;54.022;10.760;2023-08-06T00:25:55;100797.38;;;19.64;61.92
30516;BME280;17297;54.022;10.760;2023-08-06T00:28:20;100805.78;;;19.63;62.04
30516;BME280;17297;54.022;10.760;2023-08-06T00:30:46;100796.19;;;19.60;62.39
30516;BME280;17297;54.022;10.760;2023-08-06T00:33:11;100789.66;;;19.61;62.58
30516;BME280;17297;54.022;10.760;2023-08-06T00:35:37;100795.38;;;19.59;62.56
30516;BME280;17297;54.022;10.760;2023-08-06T00:38:02;100796.69;;;19.57;62.52
30516;BME280;17297;54.022;10.760;2023-08-06T00:40:28;100799.44;;;19.57;62.64
30516;BME280;17297;54.022;10.760;2023-08-06T00:42:55;100790.44;;;19.56;62.92
30516;BME280;17297;54.022;10.760;2023-08-06T00:45:21;100798.34;;;19.58;62.81
30516;BME280;17297;54.022;10.760;2023-08-06T00:47:47;100802.41;;;19.55;63.17
30516;BME280;17297;54.022;10.760;2023-08-06T00:50:13;100794.47;;;19.54;63.06
30516;BME280;17297;54.022;10.760;2023-08-06T00:52:38;100790.34;;;19.51;63.17
30516;BME280;17297;54.022;10.760;2023-08-06T00:55:05;100785.97;;;19.50;62.99
30516;BME280;17297;54.022;10.760;2023-08-06T00:57:31;100778.03;;;19.49;63.29
30516;BME280;17297;54.022;10.760;2023-08-06T00:59:56;100781.84;;;19.48;63.25
30516;BME280;17297;54.022;10.760;2023-08-06T01:02:22;100776.38;;;19.48;63.31
30516;BME280;17297;54.022;10.760;2023-08-06T01:04:47;100769.25;;;19.47;63.28
30516;BME280;17297;54.022;10.760;2023-08-06T01:07:25;100764.31;;;19.44;63.66
30516;BME280;17297;54.022;10.760;2023-08-06T01:12:43;100762.94;;;19.41;63.68
30516;BME280;17297;54.022;10.760;2023-08-06T01:15:22;100760.19;;;19.41;63.66
30516;BME280;17297;54.022;10.760;2023-08-06T01:17:50;100758.53;;;19.40;63.54
30516;BME280;17297;54.022;10.760;2023-08-06T01:20:15;100763.16;;;19.39;63.73
30516;BME280;17297;54.022;10.760;2023-08-06T01:22:40;100759.34;;;19.41;63.95
30516;BME280;17297;54.022;10.760;2023-08-06T01:25:06;100753.06;;;19.40;63.78
30516;BME280;17297;54.022;10.760;2023-08-06T01:27:38;100751.16;;;19.41;63.91
30516;BME280;17297;54.022;10.760;2023-08-06T01:30:16;100745.47;;;19.42;64.11
30516;BME280;17297;54.022;10.760;2023-08-06T01:32:44;100736.72;;;19.40;63.96
30516;BME280;17297;54.022;10.760;2023-08-06T01:35:12;100737.53;;;19.41;64.28
30516;BME280;17297;54.022;10.760;2023-08-06T01:37:39;100735.88;;;19.39;64.31
30516;BME280;17297;54.022;10.760;2023-08-06T01:40:09;100748.44;;;19.41;64.47
30516;BME280;17297;54.022;10.760;2023-08-06T01:42:35;100744.66;;;19.42;64.33
30516;BME280;17297;54.022;10.760;2023-08-06T01:45:01;100735.69;;;19.46;64.38
30516;BME280;17297;54.022;10.760;2023-08-06T01:47:26;100735.19;;;19.49;64.16
30516;BME280;17297;54.022;10.760;2023-08-06T01:49:51;100732.78;;;19.53;64.09
30516;BME280;17297;54.022;10.760;2023-08-06T01:52:18;100726.00;;;19.55;64.07
30516;BME280;17297;54.022;10.760;2023-08-06T01:54:43;100721.13;;;19.57;64.00
30516;BME280;17297;54.022;10.760;2023-08-06T01:57:09;100708.31;;;19.58;63.86
30516;BME280;17297;54.022;10.760;2023-08-06T01:59:35;100709.94;;;19.59;63.66
30516;BME280;17297;54.022;10.760;2023-08-06T02:02:00;100714.91;;;19.62;63.96
30516;BME280;17297;54.022;10.760;2023-08-06T02:04:25;100720.69;;;19.66;63.84
30516;BME280;17297;54.022;10.760;2023-08-06T02:06:51;100713.91;;;19.68;64.01
30516;BME280;17297;54.022;10.760;2023-08-06T02:09:16;100719.94;;;19.70;63.90
30516;BME280;17297;54.022;10.760;2023-08-06T02:11:41;100714.50;;;19.70;63.75
30516;BME280;17297;54.022;10.760;2023-08-06T02:14:07;100712.00;;;19.69;63.28
30516;BME280;17297;54.022;10.760;2023-08-06T02:16:32;100716.09;;;19.66;63.42
30516;BME280;17297;54.022;10.760;2023-08-06T02:18:57;100711.09;;;19.63;63.35
30516;BME280;17297;54.022;10.760;2023-08-06T02:21:23;100705.06;;;19.61;63.29
30516;BME280;17297;54.022;10.760;2023-08-06T02:23:48;100698.22;;;19.58;63.11
30516;BME280;17297;54.022;10.760;2023-08-06T02:26:13;100703.94;;;19.57;63.53
30516;BME280;17297;54.022;10.760;2023-08-06T02:28:39;100701.44;;;19.55;63.36
30516;BME280;17297;54.022;10.760;2023-08-06T02:31:04;100701.44;;;19.55;63.43
30516;BME280;17297;54.022;10.760;2023-08-06T02:33:31;100707.72;;;19.56;63.57
30516;BME280;17297;54.022;10.760;2023-08-06T02:36:01;100697.09;;;19.54;63.39
30516;BME280;17297;54.022;10.760;2023-08-06T02:38:27;100703.03;;;19.51;63.47
30516;BME280;17297;54.022;10.760;2023-08-06T02:40:52;100697.81;;;19.50;63.26
30516;BME280;17297;54.022;10.760;2023-08-06T02:43:17;100699.19;;;19.47;63.47
30516;BME280;17297;54.022;10.760;2023-08-06T02:45:43;100697.78;;;19.45;63.67
30516;BME280;17297;54.022;10.760;2023-08-06T02:48:08;100694.97;;;19.39;63.64
30516;BME280;17297;54.022;10.760;2023-08-06T02:50:38;100686.47;;;19.36;64.04
30516;BME280;17297;54.022;10.760;2023-08-06T02:53:05;100686.97;;;19.33;63.75
30516;BME280;17297;54.022;10.760;2023-08-06T02:55:30;100672.75;;;19.31;63.90
30516;BME280;17297;54.022;10.760;2023-08-06T02:57:56;100676.56;;;19.30;64.12
30516;BME280;17297;54.022;10.760;2023-08-06T03:00:21;100667.25;;;19.26;64.27
30516;BME280;17297;54.022;10.760;2023-08-06T03:02:47;100663.72;;;19.25;64.29
30516;BME280;17297;54.022;10.760;2023-08-06T03:05:52;100666.94;;;19.22;63.98
30516;BME280;17297;54.022;10.760;2023-08-06T03:08:23;100662.00;;;19.19;64.15
30516;BME280;17297;54.022;10.760;2023-08-06T03:10:50;100646.69;;;19.18;64.60
30516;BME280;17297;54.022;10.760;2023-08-06T03:13:18;100653.22;;;19.17;64.35
30516;BME280;17297;54.022;10.760;2023-08-06T03:15:51;100658.09;;;19.15;64.61
30516;BME280;17297;54.022;10.760;2023-08-06T03:18:18;100654.31;;;19.16;64.55
30516;BME280;17297;54.022;10.760;2023-08-06T03:20:44;100657.28;;;19.14;64.82
30516;BME280;17297;54.022;10.760;2023-08-06T03:23:12;100652.66;;;19.15;64.73
30516;BME280;17297;54.022;10.760;2023-08-06T03:25:37;100652.41;;;19.17;64.96
30516;BME280;17297;54.022;10.760;2023-08-06T03:28:03;100650.50;;;19.17;65.11
30516;BME280;17297;54.022;10.760;2023-08-06T03:30:29;100638.78;;;19.17;65.25
30516;BME280;17297;54.022;10.760;2023-08-06T03:32:54;100630.84;;;19.15;65.13
30516;BME280;17297;54.022;10.760;2023-08-06T03:35:21;100633.25;;;19.11;65.43
30516;BME280;17297;54.022;10.760;2023-08-06T03:37:47;100633.75;;;19.08;65.50
30516;BME280;17297;54.022;10.760;2023-08-06T03:40:12;100635.91;;;19.06;65.57
30516;BME280;17297;54.022;10.760;2023-08-06T03:42:39;100627.97;;;19.05;66.00
30516;BME280;17297;54.022;10.760;2023-08-06T03:45:05;100627.16;;;19.04;66.11
30516;BME280;17297;54.022;10.760;2023-08-06T03:47:32;100623.63;;;19.04;65.69
30516;BME280;17297;54.022;10.760;2023-08-06T03:49:58;100609.41;;;19.02;65.95
30516;BME280;17297;54.022;10.760;2023-08-06T03:52:23;100613.78;;;19.03;65.91
30516;BME280;17297;54.022;10.760;2023-08-06T03:54:48;100613.78;;;19.03;65.95
30516;BME280;17297;54.022;10.760;2023-08-06T03:57:14;100606.69;;;19.02;66.09
30516;BME280;17297;54.022;10.760;2023-08-06T03:59:39;100605.59;;;19.03;66.16
30516;BME280;17297;54.022;10.760;2023-08-06T04:02:05;100609.13;;;19.03;66.39
30516;BME280;17297;54.022;10.760;2023-08-06T04:04:31;100601.81;;;19.04;66.37
30516;BME280;17297;54.022;10.760;2023-08-06T04:06:56;100597.19;;;19.04;66.88
30516;BME280;17297;54.022;10.760;2023-08-06T04:09:22;100601.53;;;19.05;67.10
30516;BME280;17297;54.022;10.760;2023-08-06T04:11:47;100598.81;;;19.05;66.98
30516;BME280;17297;54.022;10.760;2023-08-06T04:14:12;100599.91;;;19.04;67.05
30516;BME280;17297;54.022;10.760;2023-08-06T04:16:38;100592.22;;;19.01;67.64
30516;BME280;17297;54.022;10.760;2023-08-06T04:19:03;100592.47;;;19.00;67.63
30516;BME280;17297;54.022;10.760;2023-08-06T04:21:29;100591.09;;;18.97;67.56
30516;BME280;17297;54.022;10.760;2023-08-06T04:23:54;100589.44;;;18.96;67.82
30516;BME280;17297;54.022;10.760;2023-08-06T04:26:20;100577.97;;;18.94;68.08
30516;BME280;17297;54.022;10.760;2023-08-06T04:28:45;100583.44;;;18.94;67.94
30516;BME280;17297;54.022;10.760;2023-08-06T04:31:11;100579.03;;;18.93;68.09
30516;BME280;17297;54.022;10.760;2023-08-06T04:33:38;100570.84;;;18.93;68.44
30516;BME280;17297;54.022;10.760;2023-08-06T04:36:08;100588.38;;;18.97;68.38
30516;BME280;17297;54.022;10.760;2023-08-06T04:38:33;100589.19;;;18.98;68.21
30516;BME280;17297;54.022;10.760;2023-08-06T04:40:59;100590.81;;;18.99;68.60
30516;BME280;17297;54.022;10.760;2023-08-06T04:43:24;100588.91;;;18.99;68.34
30516;BME280;17297;54.022;10.760;2023-08-06T04:45:51;100596.88;;;19.01;68.62
30516;BME280;17297;54.022;10.760;2023-08-06T04:48:18;100591.16;;;19.02;68.44
30516;BME280;17297;54.022;10.760;2023-08-06T04:50:45;100595.28;;;19.05;68.95
30516;BME280;17297;54.022;10.760;2023-08-06T04:53:11;100592.53;;;19.05;68.83
30516;BME280;17297;54.022;10.760;2023-08-06T04:55:36;100594.75;;;19.08;68.79
30516;BME280;17297;54.022;10.760;2023-08-06T04:58:01;100594.50;;;19.09;69.23
30516;BME280;17297;54.022;10.760;2023-08-06T05:00:27;100587.72;;;19.12;69.31
30516;BME280;17297;54.022;10.760;2023-08-06T05:02:52;100581.22;;;19.13;69.46
30516;BME280;17297;54.022;10.760;2023-08-06T05:05:17;100583.09;;;19.12;69.54
30516;BME280;17297;54.022;10.760;2023-08-06T05:07:43;100582.78;;;19.09;69.02
30516;BME280;17297;54.022;10.760;2023-08-06T05:10:08;100577.00;;;19.05;68.97
30516;BME280;17297;54.022;10.760;2023-08-06T05:12:34;100577.28;;;19.04;68.91
30516;BME280;17297;54.022;10.760;2023-08-06T05:14:59;100570.16;;;19.03;68.60
30516;BME280;17297;54.022;10.760;2023-08-06T05:17:26;100572.06;;;19.02;68.65
30516;BME280;17297;54.022;10.760;2023-08-06T05:19:52;100574.56;;;19.04;68.90
30516;BME280;17297;54.022;10.760;2023-08-06T05:22:17;100574.56;;;19.04;69.23
30516;BME280;17297;54.022;10.760;2023-08-06T05:24:44;100575.38;;;19.04;69.25
30516;BME280;17297;54.022;10.760;2023-08-06T05:27:09;100569.09;;;19.04;68.96
30516;BME280;17297;54.022;10.760;2023-08-06T05:29:34;100567.75;;;19.06;69.31
30516;BME280;17297;54.022;10.760;2023-08-06T05:32:00;100572.13;;;19.07;69.37
30516;BME280;17297;54.022;10.760;2023-08-06T05:34:25;100578.13;;;19.09;69.26
30516;BME280;17297;54.022;10.760;2023-08-06T05:36:52;100571.63;;;19.10;69.42
30516;BME280;17297;54.022;10.760;2023-08-06T05:39:18;100580.63;;;19.11;69.30
30516;BME280;17297;54.022;10.760;2023-08-06T05:41:43;100574.09;;;19.12;69.14
30516;BME280;17297;54.022;10.760;2023-08-06T05:44:08;100574.09;;;19.12;68.95
30516;BME280;17297;54.022;10.760;2023-08-06T05:46:33;100567.56;;;19.13;69.31
30516;BME280;17297;54.022;10.760;2023-08-06T05:48:59;100572.19;;;19.12;68.95
30516;BME280;17297;54.022;10.760;2023-08-06T05:51:26;100576.31;;;19.15;69.06
30516;BME280;17297;54.022;10.760;2023-08-06T05:53:51;100572.53;;;19.16;69.14
30516;BME280;17297;54.022;10.760;2023-08-06T05:56:18;100576.06;;;19.17;69.22
30516;BME280;17297;54.022;10.760;2023-08-06T05:58:43;100574.97;;;19.18;69.04
30516;BME280;17297;54.022;10.760;2023-08-06T06:01:09;100567.88;;;19.17;68.65
30516;BME280;17297;54.022;10.760;2023-08-06T06:03:34;100571.66;;;19.15;68.62
30516;BME280;17297;54.022;10.760;2023-08-06T06:06:01;100575.25;;;19.16;68.55
30516;BME280;17297;54.022;10.760;2023-08-06T06:08:26;100569.78;;;19.16;68.46
30516;BME280;17297;54.022;10.760;2023-08-06T06:10:51;100573.56;;;19.15;68.27
30516;BME280;17297;54.022;10.760;2023-08-06T06:13:17;100573.56;;;19.15;68.11
30516;BME280;17297;54.022;10.760;2023-08-06T06:15:42;100568.13;;;19.15;68.09
30516;BME280;17297;54.022;10.760;2023-08-06T06:18:07;100565.41;;;19.15;67.96
30516;BME280;17297;54.022;10.760;2023-08-06T06:20:33;100567.06;;;19.16;68.23
30516;BME280;17297;54.022;10.760;2023-08-06T06:22:59;100565.16;;;19.17;68.36
30516;BME280;17297;54.022;10.760;2023-08-06T06:25:24;100564.06;;;19.18;68.29
30516;BME280;17297;54.022;10.760;2023-08-06T06:27:50;100554.81;;;19.19;68.36
30516;BME280;17297;54.022;10.760;2023-08-06T06:30:15;100556.47;;;19.20;68.42
30516;BME280;17297;54.022;10.760;2023-08-06T06:32:40;100561.09;;;19.19;68.46
30516;BME280;17297;54.022;10.760;2023-08-06T06:35:07;100555.38;;;19.21;68.41
30516;BME280;17297;54.022;10.760;2023-08-06T06:37:32;100552.66;;;19.21;68.65
30516;BME280;17297;54.022;10.760;2023-08-06T06:39:57;100553.25;;;19.23;68.75
30516;BME280;17297;54.022;10.760;2023-08-06T06:42:23;100554.06;;;19.23;68.48
30516;BME280;17297;54.022;10.760;2023-08-06T06:44:51;100549.41;;;19.24;68.75
30516;BME280;17297;54.022;10.760;2023-08-06T06:47:16;100554.38;;;19.27;68.44
30516;BME280;17297;54.022;10.760;2023-08-06T06:49:42;100554.38;;;19.27;68.34
30516;BME280;17297;54.022;10.760;2023-08-06T06:52:07;100553.03;;;19.29;68.42
30516;BME280;17297;54.022;10.760;2023-08-06T06:54:32;100557.41;;;19.30;68.55
30516;BME280;17297;54.022;10.760;2023-08-06T06:56:58;100550.84;;;19.31;68.36
30516;BME280;17297;54.022;10.760;2023-08-06T06:59:23;100549.81;;;19.32;68.31
30516;BME280;17297;54.022;10.760;2023-08-06T07:01:48;100549.53;;;19.34;68.79
30516;BME280;17297;54.022;10.760;2023-08-06T07:04:14;100553.66;;;19.36;68.38
30516;BME280;17297;54.022;10.760;2023-08-06T07:06:40;100549.28;;;19.35;68.49
30516;BME280;17297;54.022;10.760;2023-08-06T07:09:06;100550.69;;;19.38;68.66
30516;BME280;17297;54.022;10.760;2023-08-06T07:11:31;100552.31;;;19.39;68.99
30516;BME280;17297;54.022;10.760;2023-08-06T07:13:57;100550.19;;;19.41;68.87
30516;BME280;17297;54.022;10.760;2023-08-06T07:16:25;100555.94;;;19.45;68.85
30516;BME280;17297;54.022;10.760;2023-08-06T07:18:52;100547.47;;;19.46;68.77
30516;BME280;17297;54.022;10.760;2023-08-06T07:21:18;100556.47;;;19.47;68.52
30516;BME280;17297;54.022;10.760;2023-08-06T07:23:43;100549.69;;;19.49;68.63
30516;BME280;17297;54.022;10.760;2023-08-06T07:26:08;100546.47;;;19.52;68.65
30516;BME280;17297;54.022;10.760;2023-08-06T07:28:34;100551.91;;;19.52;68.15
30516;BME280;17297;54.022;10.760;2023-08-06T07:30:59;100548.38;;;19.52;68.14
30516;BME280;17297;54.022;10.760;2023-08-06T07:33:25;100551.66;;;19.54;68.34
30516;BME280;17297;54.022;10.760;2023-08-06T07:35:50;100552.22;;;19.56;67.82
30516;BME280;17297;54.022;10.760;2023-08-06T07:38:15;100553.06;;;19.56;68.04
30516;BME280;17297;54.022;10.760;2023-08-06T07:40:42;100552.78;;;19.58;67.94
30516;BME280;17297;54.022;10.760;2023-08-06T07:43:07;100556.09;;;19.60;67.86
30516;BME280;17297;54.022;10.760;2023-08-06T07:45:36;100553.91;;;19.62;67.47
30516;BME280;17297;54.022;10.760;2023-08-06T07:48:02;100550.94;;;19.64;67.38
30516;BME280;17297;54.022;10.760;2023-08-06T07:50:28;100555.34;;;19.65;66.90
30516;BME280;17297;54.022;10.760;2023-08-06T07:52:53;100556.97;;;19.66;66.50
30516;BME280;17297;54.022;10.760;2023-08-06T07:55:19;100554.00;;;19.67;66.66
30516;BME280;17297;54.022;10.760;2023-08-06T07:57:44;100552.69;;;19.70;66.49
30516;BME280;17297;54.022;10.760;2023-08-06T08:00:10;100548.84;;;19.71;66.35
30516;BME280;17297;54.022;10.760;2023-08-06T08:02:38;100549.44;;;19.73;66.53
30516;BME280;17297;54.022;10.760;2023-08-06T08:05:03;100545.59;;;19.74;66.43
30516;BME280;17297;54.022;10.760;2023-08-06T08:07:29;100544.28;;;19.76;66.91
30516;BME280;17297;54.022;10.760;2023-08-06T08:09:56;100542.94;;;19.79;66.63
30516;BME280;17297;54.022;10.760;2023-08-06T08:12:21;100542.41;;;19.82;66.72
30516;BME280;17297;54.022;10.760;2023-08-06T08:14:47;100542.16;;;19.83;66.54
30516;BME280;17297;54.022;10.760;2023-08-06T08:17:12;100537.25;;;19.86;66.55
30516;BME280;17297;54.022;10.760;2023-08-06T08:19:37;100534.25;;;19.87;66.09
30516;BME280;17297;54.022;10.760;2023-08-06T08:22:03;100537.56;;;19.89;66.27
30516;BME280;17297;54.022;10.760;2023-08-06T08:24:28;100541.38;;;19.88;65.88
30516;BME280;17297;54.022;10.760;2023-08-06T08:26:56;100541.38;;;19.88;65.65
30516;BME280;17297;54.022;10.760;2023-08-06T08:29:21;100541.09;;;19.90;65.60
30516;BME280;17297;54.022;10.760;2023-08-06T08:31:47;100544.66;;;19.90;65.09
30516;BME280;17297;54.022;10.760;2023-08-06T08:34:15;100540.88;;;19.91;65.47
30516;BME280;17297;54.022;10.760;2023-08-06T08:36:40;100533.22;;;19.93;64.78
30516;BME280;17297;54.022;10.760;2023-08-06T08:39:06;100534.06;;;19.94;64.86
30516;BME280;17297;54.022;10.760;2023-08-06T08:41:31;100531.06;;;19.95;65.07
30516;BME280;17297;54.022;10.760;2023-08-06T08:43:59;100535.44;;;19.96;65.12
30516;BME280;17297;54.022;10.760;2023-08-06T08:46:29;100540.88;;;19.96;65.18
30516;BME280;17297;54.022;10.760;2023-08-06T08:48:56;100536.00;;;19.98;65.39
30516;BME280;17297;54.022;10.760;2023-08-06T08:51:24;100552.09;;;20.00;65.35
30516;BME280;17297;54.022;10.760;2023-08-06T08:53:52;100550.22;;;20.00;65.48
30516;BME280;17297;54.022;10.760;2023-08-06T08:56:18;100547.50;;;20.00;64.99
30516;BME280;17297;54.022;10.760;2023-08-06T08:58:44;100536.31;;;20.02;65.39
30516;BME280;17297;54.022;10.760;2023-08-06T09:01:10;100537.13;;;20.02;65.33
30516;BME280;17297;54.022;10.760;2023-08-06T09:03:36;100549.72;;;20.03;65.42
30516;BME280;17297;54.022;10.760;2023-08-06T09:06:02;100538.78;;;20.03;65.33
30516;BME280;17297;54.022;10.760;2023-08-06T09:08:34;100537.94;;;20.03;65.83
30516;BME280;17297;54.022;10.760;2023-08-06T09:11:02;100534.16;;;20.04;66.49
30516;BME280;17297;54.022;10.760;2023-08-06T09:13:28;100535.78;;;20.05;66.82
30516;BME280;17297;54.022;10.760;2023-08-06T09:15:53;100536.88;;;20.09;67.21
30516;BME280;17297;54.022;10.760;2023-08-06T09:18:26;100536.06;;;20.08;66.75
30516;BME280;17297;54.022;10.760;2023-08-06T09:20:55;100536.88;;;20.09;66.16
30516;BME280;17297;54.022;10.760;2023-08-06T09:23:20;100534.44;;;20.07;66.07
30516;BME280;17297;54.022;10.760;2023-08-06T09:25:45;100522.69;;;20.07;66.44
30516;BME280;17297;54.022;10.760;2023-08-06T09:28:11;100533.91;;;20.11;67.17
30516;BME280;17297;54.022;10.760;2023-08-06T09:30:37;100527.94;;;20.14;67.29
30516;BME280;17297;54.022;10.760;2023-08-06T09:33:03;100527.41;;;20.17;67.39
30516;BME280;17297;54.022;10.760;2023-08-06T09:35:31;100526.06;;;20.19;66.53
30516;BME280;17297;54.022;10.760;2023-08-06T09:38:09;100532.59;;;20.18;66.89
30516;BME280;17297;54.022;10.760;2023-08-06T09:40:36;100522.25;;;20.20;66.80
30516;BME280;17297;54.022;10.760;2023-08-06T09:43:01;100527.69;;;20.20;66.66
30516;BME280;17297;54.022;10.760;2023-08-06T09:45:39;100526.06;;;20.19;65.95
30516;BME280;17297;54.022;10.760;2023-08-06T09:48:08;100521.66;;;20.18;66.59
30516;BME280;17297;54.022;10.760;2023-08-06T09:50:36;100526.88;;;20.20;66.66
30516;BME280;17297;54.022;10.760;2023-08-06T09:53:05;100527.47;;;20.22;66.37
30516;BME280;17297;54.022;10.760;2023-08-06T09:55:32;100518.75;;;20.25;67.20
30516;BME280;17297;54.022;10.760;2023-08-06T09:57:58;100532.69;;;20.28;67.09
30516;BME280;17297;54.022;10.760;2023-08-06T10:00:24;100523.97;;;20.32;66.65
30516;BME280;17297;54.022;10.760;2023-08-06T10:02:50;100517.66;;;20.31;66.43
30516;BME280;17297;54.022;10.760;2023-08-06T10:05:16;100514.41;;;20.34;66.66
30516;BME280;17297;54.022;10.760;2023-08-06T10:07:43;100519.03;;;20.34;66.20
30516;BME280;17297;54.022;10.760;2023-08-06T10:10:09;100516.31;;;20.34;65.64
30516;BME280;17297;54.022;10.760;2023-08-06T10:12:41;100516.59;;;20.32;65.77
30516;BME280;17297;54.022;10.760;2023-08-06T10:15:14;100511.94;;;20.33;66.39
30516;BME280;17297;54.022;10.760;2023-08-06T10:17:40;100511.66;;;20.34;65.77
30516;BME280;17297;54.022;10.760;2023-08-06T10:20:08;100518.22;;;20.33;66.19
30516;BME280;17297;54.022;10.760;2023-08-06T10:22:34;100513.06;;;20.37;66.71
30516;BME280;17297;54.022;10.760;2023-08-06T10:25:00;100508.41;;;20.37;66.05
30516;BME280;17297;54.022;10.760;2023-08-06T10:27:40;100508.69;;;20.36;65.77
30516;BME280;17297;54.022;10.760;2023-08-06T10:32:52;100495.28;;;20.34;65.67
30516;BME280;17297;54.022;10.760;2023-08-06T10:35:41;100499.69;;;20.35;66.31
30516;BME280;17297;54.022;10.760;2023-08-06T10:38:11;100499.69;;;20.35;65.76
30516;BME280;17297;54.022;10.760;2023-08-06T10:40:39;100492.56;;;20.34;65.64
30516;BME280;17297;54.022;10.760;2023-08-06T10:43:04;100491.47;;;20.35;66.21
30516;BME280;17297;54.022;10.760;2023-08-06T10:45:37;100488.75;;;20.35;66.40
30516;BME280;17297;54.022;10.760;2023-08-06T10:48:03;100495.59;;;20.38;65.94
30516;BME280;17297;54.022;10.760;2023-08-06T10:50:30;100490.69;;;20.40;65.88
30516;BME280;17297;54.022;10.760;2023-08-06T10:52:57;100486.03;;;20.40;65.79
30516;BME280;17297;54.022;10.760;2023-08-06T10:57:49;100484.69;;;20.43;65.70
30516;BME280;17297;54.022;10.760;2023-08-06T11:00:14;100480.03;;;20.43;65.58
30516;BME280;17297;54.022;10.760;2023-08-06T11:02:39;100477.06;;;20.45;65.70
30516;BME280;17297;54.022;10.760;2023-08-06T11:05:06;100478.69;;;20.46;65.44
30516;BME280;17297;54.022;10.760;2023-08-06T11:07:32;100480.91;;;20.49;65.47
30516;BME280;17297;54.022;10.760;2023-08-06T11:10:02;100466.16;;;20.50;65.26
30516;BME280;17297;54.022;10.760;2023-08-06T11:12:27;100469.22;;;20.53;64.81
30516;BME280;17297;54.022;10.760;2023-08-06T11:14:53;100455.28;;;20.55;64.27
30516;BME280;17297;54.022;10.760;2023-08-06T11:17:18;100449.56;;;20.57;64.35
30516;BME280;17297;54.022;10.760;2023-08-06T11:19:45;100455.03;;;20.57;64.15
30516;BME280;17297;54.022;10.760;2023-08-06T11:22:11;100459.97;;;20.60;64.54
30516;BME280;17297;54.022;10.760;2023-08-06T11:24:37;100450.94;;;20.64;64.27
30516;BME280;17297;54.022;10.760;2023-08-06T11:27:11;100458.03;;;20.65;64.14
30516;BME280;17297;54.022;10.760;2023-08-06T11:29:38;100458.03;;;20.65;63.07
30516;BME280;17297;54.022;10.760;2023-08-06T11:32:06;100460.25;;;20.63;63.15
30516;BME280;17297;54.022;10.760;2023-08-06T11:34:31;100464.31;;;20.61;62.32
30516;BME280;17297;54.022;10.760;2023-08-06T11:36:57;100457.22;;;20.60;62.18
30516;BME280;17297;54.022;10.760;2023-08-06T11:39:23;100448.75;;;20.56;61.89
30516;BME280;17297;54.022;10.760;2023-08-06T11:41:48;100448.75;;;20.56;62.10
30516;BME280;17297;54.022;10.760;2023-08-06T11:44:14;100455.28;;;20.55;61.35
30516;BME280;17297;54.022;10.760;2023-08-06T11:46:55;100443.81;;;20.53;62.04
30516;BME280;17297;54.022;10.760;2023-08-06T11:55:08;100438.63;;;20.57;62.78
30516;BME280;17297;54.022;10.760;2023-08-06T11:57:39;100436.44;;;20.59;62.91
30516;BME280;17297;54.022;10.760;2023-08-06T12:00:09;100427.16;;;20.60;63.44
30516;BME280;17297;54.022;10.760;2023-08-06T12:02:42;100430.72;;;20.60;63.02
30516;BME280;17297;54.022;10.760;2023-08-06T12:05:14;100434.25;;;20.61;63.02
30516;BME280;17297;54.022;10.760;2023-08-06T12:07:54;100430.97;;;20.59;62.89
30516;BME280;17297;54.022;10.760;2023-08-06T12:12:46;100433.16;;;20.57;63.01
30516;BME280;17297;54.022;10.760;2023-08-06T12:15:12;100424.16;;;20.56;63.65
30516;BME280;17297;54.022;10.760;2023-08-06T12:17:38;100415.09;;;20.56;63.44
30516;BME280;17297;54.022;10.760;2023-08-06T12:20:05;100419.75;;;20.55;63.69
30516;BME280;17297;54.022;10.760;2023-08-06T12:22:31;100424.16;;;20.56;63.87
30516;BME280;17297;54.022;10.760;2023-08-06T12:25:04;100417.03;;;20.55;63.90
30516;BME280;17297;54.022;10.760;2023-08-06T12:27:37;100415.88;;;20.51;63.74
30516;BME280;17297;54.022;10.760;2023-08-06T12:30:03;100407.13;;;20.49;63.62
30516;BME280;17297;54.022;10.760;2023-08-06T12:32:29;100414.47;;;20.43;63.82
30516;BME280;17297;54.022;10.760;2023-08-06T12:34:55;100413.94;;;20.41;64.10
30516;BME280;17297;54.022;10.760;2023-08-06T12:37:20;100410.91;;;20.38;63.56
30516;BME280;17297;54.022;10.760;2023-08-06T12:39:46;100404.38;;;20.39;64.06
30516;BME280;17297;54.022;10.760;2023-08-06T12:42:12;100401.63;;;20.39;64.58
30516;BME280;17297;54.022;10.760;2023-08-06T12:44:37;100402.19;;;20.41;64.48
30516;BME280;17297;54.022;10.760;2023-08-06T12:47:03;100403.28;;;20.45;64.48
30516;BME280;17297;54.022;10.760;2023-08-06T12:49:28;100395.09;;;20.45;64.02
30516;BME280;17297;54.022;10.760;2023-08-06T12:51:55;100401.38;;;20.45;64.07
30516;BME280;17297;54.022;10.760;2023-08-06T12:54:22;100396.19;;;20.49;64.55